sensor_id;sensor_type;location;lat;lon;timestamp;pressure;altitude;pressure_sealevel;temperature;humidity
19005;BME280;9635;52.078;8.648;2023-05-20T00:03:11;101216.06;;;13.91;47.62
19005;BME280;9635;52.078;8.648;2023-05-20T00:08:14;101202.69;;;13.89;47.66
19005;BME280;9635;52.078;8.648;2023-05-20T00:13:17;101199.63;;;13.83;47.64
19005;BME280;9635;52.078;8.648;2023-05-20T00:18:21;101205.66;;;13.75;47.97
19005;BME280;9635;52.078;8.648;2023-05-20T00:23:24;101204.81;;;13.75;48.18
19005;BME280;9635;52.078;8.648;2023-05-20T00:28:27;101205.28;;;13.68;48.12
19005;BME280;9635;52.078;8.648;2023-05-20T00:33:32;101216.22;;;13.67;48.37
19005;BME280;9635;52.078;8.648;2023-05-20T00:38:36;101212.19;;;13.61;48.68
19005;BME280;9635;52.078;8.648;2023-05-20T00:43:40;101201.50;;;13.48;48.77
19005;BME280;9635;52.078;8.648;2023-05-20T00:48:44;101208.00;;;13.46;48.89
19005;BME280;9635;52.078;8.648;2023-05-20T00:53:47;101215.00;;;13.37;49.31
19005;BME280;9635;52.078;8.648;2023-05-20T00:58:51;101210.16;;;13.30;49.47
19005;BME280;9635;52.078;8.648;2023-05-20T01:03:55;101207.13;;;13.23;49.82
19005;BME280;9635;52.078;8.648;2023-05-20T01:08:58;101202.22;;;13.17;49.88
19005;BME280;9635;52.078;8.648;2023-05-20T01:14:06;101202.69;;;13.11;50.21
19005;BME280;9635;52.078;8.648;2023-05-20T01:19:21;101201.31;;;13.05;50.25
19005;BME280;9635;52.078;8.648;2023-05-20T01:24:31;101192.63;;;12.90;50.84
19005;BME280;9635;52.078;8.648;2023-05-20T01:29:34;101192.09;;;12.85;51.08
19005;BME280;9635;52.078;8.648;2023-05-20T01:34:37;101194.53;;;12.77;51.35
19005;BME280;9635;52.078;8.648;2023-05-20T01:39:44;101192.09;;;12.74;51.44
19005;BME280;9635;52.078;8.648;2023-05-20T01:44:48;101176.63;;;12.65;51.64
19005;BME280;9635;52.078;8.648;2023-05-20T01:49:51;101170.97;;;12.56;51.89
19005;BME280;9635;52.078;8.648;2023-05-20T01:54:56;101169.38;;;12.54;51.95
19005;BME280;9635;52.078;8.648;2023-05-20T01:59:59;101183.81;;;12.53;51.97
19005;BME280;9635;52.078;8.648;2023-05-20T02:05:02;101175.44;;;12.45;52.27
19005;BME280;9635;52.078;8.648;2023-05-20T02:10:07;101179.84;;;12.34;52.63
19005;BME280;9635;52.078;8.648;2023-05-20T02:15:10;101174.00;;;12.28;52.99
19005;BME280;9635;52.078;8.648;2023-05-20T02:20:15;101176.09;;;12.24;53.04
19005;BME280;9635;52.078;8.648;2023-05-20T02:25:19;101179.13;;;12.20;53.17
19005;BME280;9635;52.078;8.648;2023-05-20T02:30:22;101177.88;;;12.12;53.35
19005;BME280;9635;52.078;8.648;2023-05-20T02:35:25;101176.28;;;12.10;53.48
19005;BME280;9635;52.078;8.648;2023-05-20T02:40:29;101173.41;;;12.00;53.91
19005;BME280;9635;52.078;8.648;2023-05-20T02:45:34;101173.72;;;11.95;54.08
19005;BME280;9635;52.078;8.648;2023-05-20T02:50:37;101165.16;;;11.90;54.29
19005;BME280;9635;52.078;8.648;2023-05-20T02:55:44;101170.25;;;11.82;54.62
19005;BME280;9635;52.078;8.648;2023-05-20T03:00:47;101171.03;;;11.71;54.81
19005;BME280;9635;52.078;8.648;2023-05-20T03:05:51;101173.22;;;11.66;55.01
19005;BME280;9635;52.078;8.648;2023-05-20T03:10:55;101173.97;;;11.68;55.03
19005;BME280;9635;52.078;8.648;2023-05-20T03:15:58;101169.66;;;11.66;55.18
19005;BME280;9635;52.078;8.648;2023-05-20T03:21:02;101178.81;;;11.63;55.34
19005;BME280;9635;52.078;8.648;2023-05-20T03:26:06;101174.63;;;11.59;55.34
19005;BME280;9635;52.078;8.648;2023-05-20T03:31:09;101185.28;;;11.61;55.61
19005;BME280;9635;52.078;8.648;2023-05-20T03:36:12;101183.66;;;11.58;55.81
19005;BME280;9635;52.078;8.648;2023-05-20T03:41:17;101191.00;;;11.56;56.15
19005;BME280;9635;52.078;8.648;2023-05-20T03:46:20;101199.97;;;11.44;56.23
19005;BME280;9635;52.078;8.648;2023-05-20T03:51:23;101206.50;;;11.40;56.56
19005;BME280;9635;52.078;8.648;2023-05-20T03:56:30;101201.25;;;11.38;56.89
19005;BME280;9635;52.078;8.648;2023-05-20T04:01:33;101195.13;;;11.36;57.22
19005;BME280;9635;52.078;8.648;2023-05-20T04:06:38;101182.97;;;11.31;57.46
19005;BME280;9635;52.078;8.648;2023-05-20T04:11:42;101182.22;;;11.28;57.77
19005;BME280;9635;52.078;8.648;2023-05-20T04:16:45;101180.91;;;11.21;57.88
19005;BME280;9635;52.078;8.648;2023-05-20T04:21:48;101193.88;;;11.16;58.33
19005;BME280;9635;52.078;8.648;2023-05-20T04:26:53;101181.81;;;11.22;58.27
19005;BME280;9635;52.078;8.648;2023-05-20T04:31:56;101182.44;;;11.25;58.50
19005;BME280;9635;52.078;8.648;2023-05-20T04:36:59;101182.31;;;11.27;58.88
19005;BME280;9635;52.078;8.648;2023-05-20T04:42:04;101180.81;;;11.36;58.73
19005;BME280;9635;52.078;8.648;2023-05-20T04:47:07;101184.69;;;11.32;58.56
19005;BME280;9635;52.078;8.648;2023-05-20T04:52:12;101177.69;;;11.29;58.59
19005;BME280;9635;52.078;8.648;2023-05-20T04:57:16;101182.31;;;11.40;58.50
19005;BME280;9635;52.078;8.648;2023-05-20T05:02:22;101174.09;;;11.54;58.42
19005;BME280;9635;52.078;8.648;2023-05-20T05:07:24;101169.06;;;11.73;57.72
19005;BME280;9635;52.078;8.648;2023-05-20T05:12:29;101164.47;;;12.00;57.44
19005;BME280;9635;52.078;8.648;2023-05-20T05:17:32;101161.00;;;12.22;57.09
19005;BME280;9635;52.078;8.648;2023-05-20T05:22:35;101158.06;;;12.37;56.91
19005;BME280;9635;52.078;8.648;2023-05-20T05:27:42;101160.31;;;12.55;56.58
19005;BME280;9635;52.078;8.648;2023-05-20T05:32:45;101158.97;;;12.60;55.85
19005;BME280;9635;52.078;8.648;2023-05-20T05:37:49;101159.97;;;12.71;55.75
19005;BME280;9635;52.078;8.648;2023-05-20T05:42:53;101157.28;;;12.71;55.74
19005;BME280;9635;52.078;8.648;2023-05-20T05:47:56;101159.13;;;12.70;55.51
19005;BME280;9635;52.078;8.648;2023-05-20T05:52:59;101165.47;;;12.69;55.83
19005;BME280;9635;52.078;8.648;2023-05-20T05:58:05;101169.06;;;12.81;55.61
19005;BME280;9635;52.078;8.648;2023-05-20T06:03:08;101159.06;;;13.05;55.13
19005;BME280;9635;52.078;8.648;2023-05-20T06:08:12;101154.13;;;12.99;54.39
19005;BME280;9635;52.078;8.648;2023-05-20T06:13:16;101150.72;;;13.20;54.53
19005;BME280;9635;52.078;8.648;2023-05-20T06:18:20;101147.03;;;13.43;53.60
19005;BME280;9635;52.078;8.648;2023-05-20T06:23:28;101164.81;;;13.57;53.50
19005;BME280;9635;52.078;8.648;2023-05-20T06:28:35;101164.13;;;13.87;52.93
19005;BME280;9635;52.078;8.648;2023-05-20T06:33:39;101158.69;;;14.10;52.80
19005;BME280;9635;52.078;8.648;2023-05-20T06:38:45;101158.81;;;14.41;52.02
19005;BME280;9635;52.078;8.648;2023-05-20T06:43:51;101155.59;;;14.35;51.80
19005;BME280;9635;52.078;8.648;2023-05-20T06:49:23;101153.59;;;14.70;52.05
19005;BME280;9635;52.078;8.648;2023-05-20T06:54:27;101134.44;;;15.03;51.43
19005;BME280;9635;52.078;8.648;2023-05-20T06:59:33;101126.59;;;15.00;51.15
19005;BME280;9635;52.078;8.648;2023-05-20T07:04:38;101131.53;;;15.26;51.64
19005;BME280;9635;52.078;8.648;2023-05-20T07:09:41;101138.06;;;15.44;50.88
19005;BME280;9635;52.078;8.648;2023-05-20T07:14:46;101121.56;;;15.67;50.49
19005;BME280;9635;52.078;8.648;2023-05-20T07:19:49;101127.25;;;15.74;50.39
19005;BME280;9635;52.078;8.648;2023-05-20T07:24:52;101119.00;;;15.75;50.71
19005;BME280;9635;52.078;8.648;2023-05-20T07:29:57;101111.19;;;16.01;50.26
19005;BME280;9635;52.078;8.648;2023-05-20T07:35:00;101111.22;;;16.40;49.88
19005;BME280;9635;52.078;8.648;2023-05-20T07:40:04;101113.72;;;16.71;48.71
19005;BME280;9635;52.078;8.648;2023-05-20T07:45:10;101106.53;;;17.27;47.90
19005;BME280;9635;52.078;8.648;2023-05-20T07:50:13;101097.06;;;17.76;47.52
19005;BME280;9635;52.078;8.648;2023-05-20T07:55:16;101089.59;;;18.76;44.33
19005;BME280;9635;52.078;8.648;2023-05-20T08:00:21;101086.06;;;18.84;43.54
19005;BME280;9635;52.078;8.648;2023-05-20T08:05:25;101084.66;;;18.27;44.33
19005;BME280;9635;52.078;8.648;2023-05-20T08:10:28;101093.09;;;18.42;44.43
19005;BME280;9635;52.078;8.648;2023-05-20T08:15:34;101087.16;;;18.03;44.41
19005;BME280;9635;52.078;8.648;2023-05-20T08:20:37;101085.25;;;18.39;43.74
19005;BME280;9635;52.078;8.648;2023-05-20T08:25:40;101081.50;;;18.14;44.38
19005;BME280;9635;52.078;8.648;2023-05-20T08:30:46;101082.50;;;18.13;43.91
19005;BME280;9635;52.078;8.648;2023-05-20T08:35:49;101073.06;;;18.43;43.34
19005;BME280;9635;52.078;8.648;2023-05-20T08:40:53;101067.78;;;18.68;43.02
19005;BME280;9635;52.078;8.648;2023-05-20T08:45:59;101064.78;;;18.53;43.03
19005;BME280;9635;52.078;8.648;2023-05-20T08:51:07;101069.28;;;18.70;43.60
19005;BME280;9635;52.078;8.648;2023-05-20T08:56:11;101069.81;;;19.00;42.25
19005;BME280;9635;52.078;8.648;2023-05-20T09:01:16;101064.47;;;19.24;42.26
19005;BME280;9635;52.078;8.648;2023-05-20T09:06:19;101059.47;;;19.54;41.38
19005;BME280;9635;52.078;8.648;2023-05-20T09:11:22;101063.44;;;19.68;41.37
19005;BME280;9635;52.078;8.648;2023-05-20T09:16:26;101060.59;;;20.19;41.54
19005;BME280;9635;52.078;8.648;2023-05-20T09:21:29;101064.81;;;20.29;41.09
19005;BME280;9635;52.078;8.648;2023-05-20T09:26:32;101067.56;;;20.29;40.16
19005;BME280;9635;52.078;8.648;2023-05-20T09:31:37;101063.31;;;20.02;40.85
19005;BME280;9635;52.078;8.648;2023-05-20T09:36:42;101052.25;;;20.37;40.56
19005;BME280;9635;52.078;8.648;2023-05-20T09:41:51;101051.16;;;20.62;41.27
19005;BME280;9635;52.078;8.648;2023-05-20T09:47:00;101039.44;;;21.40;40.13
19005;BME280;9635;52.078;8.648;2023-05-20T09:52:03;101042.66;;;20.57;39.79
19005;BME280;9635;52.078;8.648;2023-05-20T09:57:06;101041.16;;;20.46;40.71
19005;BME280;9635;52.078;8.648;2023-05-20T10:02:12;101043.09;;;20.85;40.01
19005;BME280;9635;52.078;8.648;2023-05-20T10:07:30;101028.44;;;20.78;40.14
19005;BME280;9635;52.078;8.648;2023-05-20T10:12:52;101035.97;;;21.23;39.78
19005;BME280;9635;52.078;8.648;2023-05-20T10:18:07;101023.84;;;21.80;39.40
19005;BME280;9635;52.078;8.648;2023-05-20T10:23:20;101026.84;;;21.62;39.34
19005;BME280;9635;52.078;8.648;2023-05-20T10:28:32;101025.53;;;21.81;39.37
19005;BME280;9635;52.078;8.648;2023-05-20T10:33:42;101016.69;;;21.48;38.77
19005;BME280;9635;52.078;8.648;2023-05-20T10:38:51;101024.69;;;20.79;40.14
19005;BME280;9635;52.078;8.648;2023-05-20T10:44:00;101019.16;;;20.07;41.37
19005;BME280;9635;52.078;8.648;2023-05-20T10:49:16;101028.03;;;20.42;41.59
19005;BME280;9635;52.078;8.648;2023-05-20T10:54:20;101023.94;;;20.13;41.98
19005;BME280;9635;52.078;8.648;2023-05-20T10:59:24;101034.88;;;20.05;42.21
19005;BME280;9635;52.078;8.648;2023-05-20T11:04:29;101020.53;;;20.36;42.03
19005;BME280;9635;52.078;8.648;2023-05-20T11:09:33;101013.41;;;19.18;43.70
19005;BME280;9635;52.078;8.648;2023-05-20T11:14:36;101014.16;;;19.45;43.10
19005;BME280;9635;52.078;8.648;2023-05-20T11:19:40;101015.22;;;19.01;43.55
19005;BME280;9635;52.078;8.648;2023-05-20T11:24:43;101007.75;;;19.71;42.97
19005;BME280;9635;52.078;8.648;2023-05-20T11:29:48;101009.13;;;19.83;42.77
19005;BME280;9635;52.078;8.648;2023-05-20T11:34:53;100994.09;;;20.11;42.31
19005;BME280;9635;52.078;8.648;2023-05-20T11:40:03;100986.63;;;20.77;41.44
19005;BME280;9635;52.078;8.648;2023-05-20T11:45:12;100994.81;;;20.77;41.30
19005;BME280;9635;52.078;8.648;2023-05-20T11:50:17;100978.19;;;21.04;41.39
19005;BME280;9635;52.078;8.648;2023-05-20T11:55:20;100980.31;;;21.16;40.23
19005;BME280;9635;52.078;8.648;2023-05-20T12:00:23;100990.97;;;21.57;40.12
19005;BME280;9635;52.078;8.648;2023-05-20T12:05:31;100972.91;;;21.79;39.37
19005;BME280;9635;52.078;8.648;2023-05-20T12:10:34;100971.38;;;21.54;39.94
19005;BME280;9635;52.078;8.648;2023-05-20T12:15:38;100959.88;;;21.35;40.84
19005;BME280;9635;52.078;8.648;2023-05-20T12:20:42;100953.16;;;21.23;40.64
19005;BME280;9635;52.078;8.648;2023-05-20T12:25:45;100949.94;;;21.42;40.94
19005;BME280;9635;52.078;8.648;2023-05-20T12:30:50;100947.53;;;20.85;41.01
19005;BME280;9635;52.078;8.648;2023-05-20T12:35:54;100944.31;;;20.34;42.71
19005;BME280;9635;52.078;8.648;2023-05-20T12:40:57;100940.19;;;20.46;42.12
19005;BME280;9635;52.078;8.648;2023-05-20T12:46:00;100931.59;;;21.51;40.55
19005;BME280;9635;52.078;8.648;2023-05-20T12:51:05;100922.03;;;22.82;37.80
19005;BME280;9635;52.078;8.648;2023-05-20T12:56:08;100920.78;;;21.96;39.09
19005;BME280;9635;52.078;8.648;2023-05-20T13:01:11;100927.16;;;22.41;38.69
19005;BME280;9635;52.078;8.648;2023-05-20T13:06:15;100926.34;;;21.87;39.50
19005;BME280;9635;52.078;8.648;2023-05-20T13:11:18;100912.28;;;21.91;39.59
19005;BME280;9635;52.078;8.648;2023-05-20T13:16:22;100908.00;;;21.73;40.07
19005;BME280;9635;52.078;8.648;2023-05-20T13:21:26;100902.19;;;21.30;41.02
19005;BME280;9635;52.078;8.648;2023-05-20T13:26:29;100896.09;;;21.66;40.09
19005;BME280;9635;52.078;8.648;2023-05-20T13:31:32;100870.41;;;22.64;39.31
19005;BME280;9635;52.078;8.648;2023-05-20T13:36:37;100884.69;;;22.00;39.44
19005;BME280;9635;52.078;8.648;2023-05-20T13:41:39;100887.50;;;21.69;39.95
19005;BME280;9635;52.078;8.648;2023-05-20T13:46:42;100865.41;;;21.41;41.45
19005;BME280;9635;52.078;8.648;2023-05-20T13:51:46;100850.84;;;23.75;37.86
19005;BME280;9635;52.078;8.648;2023-05-20T13:56:49;100850.69;;;22.69;39.10
19005;BME280;9635;52.078;8.648;2023-05-20T14:01:52;100852.31;;;22.63;39.19
19005;BME280;9635;52.078;8.648;2023-05-20T14:06:57;100858.66;;;22.19;39.68
19005;BME280;9635;52.078;8.648;2023-05-20T14:12:01;100854.94;;;21.44;40.70
19005;BME280;9635;52.078;8.648;2023-05-20T14:17:04;100857.69;;;20.98;41.90
19005;BME280;9635;52.078;8.648;2023-05-20T14:22:08;100845.94;;;20.36;42.76
19005;BME280;9635;52.078;8.648;2023-05-20T14:27:11;100846.09;;;20.26;43.14
19005;BME280;9635;52.078;8.648;2023-05-20T14:32:14;100847.03;;;21.12;41.87
19005;BME280;9635;52.078;8.648;2023-05-20T14:37:19;100849.06;;;20.55;42.84
19005;BME280;9635;52.078;8.648;2023-05-20T14:42:23;100843.88;;;20.21;43.59
19005;BME280;9635;52.078;8.648;2023-05-20T14:47:26;100840.13;;;19.83;44.45
19005;BME280;9635;52.078;8.648;2023-05-20T14:52:30;100849.19;;;19.67;44.52
19005;BME280;9635;52.078;8.648;2023-05-20T14:57:33;100848.63;;;19.47;44.99
19005;BME280;9635;52.078;8.648;2023-05-20T15:02:36;100844.91;;;19.32;45.36
19005;BME280;9635;52.078;8.648;2023-05-20T15:07:40;100839.97;;;19.52;45.23
19005;BME280;9635;52.078;8.648;2023-05-20T15:12:45;100849.34;;;19.24;45.82
19005;BME280;9635;52.078;8.648;2023-05-20T15:17:48;100836.91;;;19.14;46.35
19005;BME280;9635;52.078;8.648;2023-05-20T15:22:52;100845.75;;;19.24;46.21
19005;BME280;9635;52.078;8.648;2023-05-20T15:27:55;100847.41;;;18.33;47.69
19005;BME280;9635;52.078;8.648;2023-05-20T15:32:58;100842.91;;;18.08;47.88
19005;BME280;9635;52.078;8.648;2023-05-20T15:38:03;100844.13;;;18.13;48.21
19005;BME280;9635;52.078;8.648;2023-05-20T15:43:06;100832.66;;;18.02;48.73
19005;BME280;9635;52.078;8.648;2023-05-20T15:48:09;100828.09;;;18.02;48.49
19005;BME280;9635;52.078;8.648;2023-05-20T15:53:14;100830.38;;;17.89;49.21
19005;BME280;9635;52.078;8.648;2023-05-20T15:58:17;100834.31;;;17.95;48.55
19005;BME280;9635;52.078;8.648;2023-05-20T16:03:20;100836.25;;;18.02;48.90
19005;BME280;9635;52.078;8.648;2023-05-20T16:08:25;100818.84;;;17.95;49.05
19005;BME280;9635;52.078;8.648;2023-05-20T16:13:29;100814.91;;;17.89;49.05
19005;BME280;9635;52.078;8.648;2023-05-20T16:18:32;100818.53;;;17.98;48.91
19005;BME280;9635;52.078;8.648;2023-05-20T16:23:37;100817.97;;;18.21;48.52
19005;BME280;9635;52.078;8.648;2023-05-20T16:28:40;100817.81;;;18.22;48.52
19005;BME280;9635;52.078;8.648;2023-05-20T16:33:43;100810.31;;;18.16;48.86
19005;BME280;9635;52.078;8.648;2023-05-20T16:38:47;100812.06;;;18.33;49.06
19005;BME280;9635;52.078;8.648;2023-05-20T16:43:50;100820.63;;;18.12;48.92
19005;BME280;9635;52.078;8.648;2023-05-20T16:48:53;100812.78;;;17.75;49.57
19005;BME280;9635;52.078;8.648;2023-05-20T16:53:57;100799.63;;;17.62;50.22
19005;BME280;9635;52.078;8.648;2023-05-20T16:59:01;100804.31;;;17.52;50.33
19005;BME280;9635;52.078;8.648;2023-05-20T17:04:04;100809.41;;;17.47;50.64
19005;BME280;9635;52.078;8.648;2023-05-20T17:09:09;100802.47;;;17.53;50.68
19005;BME280;9635;52.078;8.648;2023-05-20T17:14:12;100803.16;;;17.55;51.07
19005;BME280;9635;52.078;8.648;2023-05-20T17:19:15;100808.38;;;17.48;51.38
19005;BME280;9635;52.078;8.648;2023-05-20T17:24:19;100819.06;;;17.50;51.31
19005;BME280;9635;52.078;8.648;2023-05-20T17:29:22;100820.03;;;17.40;51.59
19005;BME280;9635;52.078;8.648;2023-05-20T17:34:25;100819.00;;;17.41;51.73
19005;BME280;9635;52.078;8.648;2023-05-20T17:39:29;100810.56;;;17.44;51.46
19005;BME280;9635;52.078;8.648;2023-05-20T17:44:32;100809.44;;;17.55;51.45
19005;BME280;9635;52.078;8.648;2023-05-20T17:49:35;100799.59;;;17.54;51.58
19005;BME280;9635;52.078;8.648;2023-05-20T17:54:39;100816.09;;;17.61;51.27
19005;BME280;9635;52.078;8.648;2023-05-20T17:59:42;100820.28;;;17.29;51.74
19005;BME280;9635;52.078;8.648;2023-05-20T18:04:46;100831.06;;;17.21;52.30
19005;BME280;9635;52.078;8.648;2023-05-20T18:09:50;100834.72;;;17.12;52.48
19005;BME280;9635;52.078;8.648;2023-05-20T18:14:53;100846.03;;;17.07;52.90
19005;BME280;9635;52.078;8.648;2023-05-20T18:19:56;100841.13;;;17.11;52.70
19005;BME280;9635;52.078;8.648;2023-05-20T18:25:00;100827.56;;;17.11;53.18
19005;BME280;9635;52.078;8.648;2023-05-20T18:30:04;100831.13;;;16.93;53.07
19005;BME280;9635;52.078;8.648;2023-05-20T18:35:08;100837.69;;;16.73;53.67
19005;BME280;9635;52.078;8.648;2023-05-20T18:40:13;100840.75;;;16.88;53.62
19005;BME280;9635;52.078;8.648;2023-05-20T18:45:16;100832.75;;;16.86;53.72
19005;BME280;9635;52.078;8.648;2023-05-20T18:50:19;100832.34;;;16.81;53.61
19005;BME280;9635;52.078;8.648;2023-05-20T18:55:23;100832.22;;;16.83;53.60
19005;BME280;9635;52.078;8.648;2023-05-20T19:00:26;100830.91;;;16.87;53.75
19005;BME280;9635;52.078;8.648;2023-05-20T19:05:29;100832.97;;;16.75;53.88
19005;BME280;9635;52.078;8.648;2023-05-20T19:10:34;100816.00;;;16.73;54.18
19005;BME280;9635;52.078;8.648;2023-05-20T19:15:37;100816.47;;;16.68;54.30
19005;BME280;9635;52.078;8.648;2023-05-20T19:20:39;100812.03;;;16.67;54.29
19005;BME280;9635;52.078;8.648;2023-05-20T19:25:44;100817.56;;;16.57;54.63
19005;BME280;9635;52.078;8.648;2023-05-20T19:30:47;100833.28;;;16.54;54.87
19005;BME280;9635;52.078;8.648;2023-05-20T19:35:50;100834.84;;;16.56;54.98
19005;BME280;9635;52.078;8.648;2023-05-20T19:40:54;100840.44;;;16.45;55.20
19005;BME280;9635;52.078;8.648;2023-05-20T19:45:58;100841.38;;;16.36;55.33
19005;BME280;9635;52.078;8.648;2023-05-20T19:51:01;100835.31;;;16.14;55.65
19005;BME280;9635;52.078;8.648;2023-05-20T19:56:05;100828.22;;;16.04;55.98
19005;BME280;9635;52.078;8.648;2023-05-20T20:01:09;100826.41;;;15.95;56.60
19005;BME280;9635;52.078;8.648;2023-05-20T20:06:13;100820.59;;;15.89;56.46
19005;BME280;9635;52.078;8.648;2023-05-20T20:11:17;100812.47;;;15.89;56.84
19005;BME280;9635;52.078;8.648;2023-05-20T20:16:20;100809.50;;;15.83;56.83
19005;BME280;9635;52.078;8.648;2023-05-20T20:21:23;100806.22;;;15.79;56.96
19005;BME280;9635;52.078;8.648;2023-05-20T20:26:28;100811.81;;;15.78;56.91
19005;BME280;9635;52.078;8.648;2023-05-20T20:31:31;100807.97;;;15.70;57.22
19005;BME280;9635;52.078;8.648;2023-05-20T20:36:34;100808.13;;;15.69;57.50
19005;BME280;9635;52.078;8.648;2023-05-20T20:41:39;100804.59;;;15.59;57.63
19005;BME280;9635;52.078;8.648;2023-05-20T20:46:46;100802.78;;;15.50;57.96
19005;BME280;9635;52.078;8.648;2023-05-20T20:51:51;100802.50;;;15.33;58.12
19005;BME280;9635;52.078;8.648;2023-05-20T20:56:56;100801.91;;;15.30;58.82
19005;BME280;9635;52.078;8.648;2023-05-20T21:02:00;100796.53;;;15.20;58.78
19005;BME280;9635;52.078;8.648;2023-05-20T21:07:03;100800.66;;;15.14;59.17
19005;BME280;9635;52.078;8.648;2023-05-20T21:12:08;100787.25;;;15.13;59.04
19005;BME280;9635;52.078;8.648;2023-05-20T21:17:11;100790.41;;;15.18;59.41
19005;BME280;9635;52.078;8.648;2023-05-20T21:22:14;100795.78;;;15.27;58.86
19005;BME280;9635;52.078;8.648;2023-05-20T21:27:18;100781.38;;;15.27;59.31
19005;BME280;9635;52.078;8.648;2023-05-20T21:32:21;100778.00;;;15.25;59.19
19005;BME280;9635;52.078;8.648;2023-05-20T21:37:24;100777.84;;;15.26;59.28
19005;BME280;9635;52.078;8.648;2023-05-20T21:42:29;100759.63;;;15.19;59.15
19005;BME280;9635;52.078;8.648;2023-05-20T21:47:31;100760.91;;;15.15;59.42
19005;BME280;9635;52.078;8.648;2023-05-20T21:52:34;100764.19;;;15.18;59.64
19005;BME280;9635;52.078;8.648;2023-05-20T21:57:39;100753.53;;;15.17;59.56
19005;BME280;9635;52.078;8.648;2023-05-20T22:02:42;100757.38;;;15.14;59.59
19005;BME280;9635;52.078;8.648;2023-05-20T22:07:45;100753.94;;;15.12;59.85
19005;BME280;9635;52.078;8.648;2023-05-20T22:12:49;100751.97;;;15.04;60.13
19005;BME280;9635;52.078;8.648;2023-05-20T22:17:52;100748.41;;;14.94;60.30
19005;BME280;9635;52.078;8.648;2023-05-20T22:22:55;100743.56;;;14.88;60.57
19005;BME280;9635;52.078;8.648;2023-05-20T22:28:00;100736.47;;;14.77;60.92
19005;BME280;9635;52.078;8.648;2023-05-20T22:33:05;100722.09;;;14.67;61.38
19005;BME280;9635;52.078;8.648;2023-05-20T22:38:08;100712.13;;;14.58;61.51
19005;BME280;9635;52.078;8.648;2023-05-20T22:43:12;100716.69;;;14.48;61.90
19005;BME280;9635;52.078;8.648;2023-05-20T22:48:15;100713.81;;;14.40;62.16
19005;BME280;9635;52.078;8.648;2023-05-20T22:53:17;100702.44;;;14.36;62.62
19005;BME280;9635;52.078;8.648;2023-05-20T22:58:22;100706.13;;;14.35;62.71
19005;BME280;9635;52.078;8.648;2023-05-20T23:03:24;100685.94;;;14.29;63.25
19005;BME280;9635;52.078;8.648;2023-05-20T23:08:27;100686.63;;;14.31;63.32
19005;BME280;9635;52.078;8.648;2023-05-20T23:13:32;100683.66;;;14.25;63.45
19005;BME280;9635;52.078;8.648;2023-05-20T23:18:35;100682.94;;;14.23;63.39
19005;BME280;9635;52.078;8.648;2023-05-20T23:23:38;100669.16;;;14.16;63.68
19005;BME280;9635;52.078;8.648;2023-05-20T23:28:42;100659.75;;;14.10;63.79
19005;BME280;9635;52.078;8.648;2023-05-20T23:33:45;100653.22;;;14.13;63.95
19005;BME280;9635;52.078;8.648;2023-05-20T23:38:48;100659.88;;;14.09;64.08
19005;BME280;9635;52.078;8.648;2023-05-20T23:43:53;100652.75;;;13.98;64.37
19005;BME280;9635;52.078;8.648;2023-05-20T23:48:56;100652.59;;;13.90;64.87
19005;BME280;9635;52.078;8.648;2023-05-20T23:54:00;100657.44;;;13.86;64.84
19005;BME280;9635;52.078;8.648;2023-05-20T23:59:04;100643.22;;;13.75;65.27
